sensor_id;sensor_type;location;lat;lon;timestamp;pressure;altitude;pressure_sealevel;temperature;humidity
15914;BME280;8055;51.930;8.840;2023-02-22T00:00:18;76491.03;;;-145.72;100.00
15914;BME280;8055;51.930;8.840;2023-02-22T00:02:50;76486.91;;;-145.72;100.00
15914;BME280;8055;51.930;8.840;2023-02-22T00:05:17;76488.97;;;-145.72;100.00
15914;BME280;8055;51.930;8.840;2023-02-22T00:07:49;76495.19;;;-145.72;100.00
15914;BME280;8055;51.930;8.840;2023-02-22T00:10:15;76497.25;;;-145.72;100.00
15914;BME280;8055;51.930;8.840;2023-02-22T00:12:48;76493.13;;;-145.72;100.00
15914;BME280;8055;51.930;8.840;2023-02-22T00:15:15;76493.13;;;-145.72;100.00
15914;BME280;8055;51.930;8.840;2023-02-22T00:17:41;76491.03;;;-145.72;100.00
15914;BME280;8055;51.930;8.840;2023-02-22T00:20:08;76495.19;;;-145.72;100.00
15914;BME280;8055;51.930;8.840;2023-02-22T00:22:34;76491.03;;;-145.72;100.00
15914;BME280;8055;51.930;8.840;2023-02-22T00:24:59;76501.41;;;-145.72;100.00
15914;BME280;8055;51.930;8.840;2023-02-22T00:27:25;76495.19;;;-145.72;100.00
15914;BME280;8055;51.930;8.840;2023-02-22T00:29:50;76497.25;;;-145.72;100.00
15914;BME280;8055;51.930;8.840;2023-02-22T00:32:16;76495.19;;;-145.72;100.00
15914;BME280;8055;51.930;8.840;2023-02-22T00:34:41;76491.03;;;-145.72;100.00
15914;BME280;8055;51.930;8.840;2023-02-22T00:37:09;76495.19;;;-145.72;100.00
15914;BME280;8055;51.930;8.840;2023-02-22T00:39:35;76495.19;;;-145.72;100.00
15914;BME280;8055;51.930;8.840;2023-02-22T00:42:01;76503.47;;;-145.72;100.00
15914;BME280;8055;51.930;8.840;2023-02-22T00:44:26;76507.59;;;-145.72;100.00
15914;BME280;8055;51.930;8.840;2023-02-22T00:46:51;76501.41;;;-145.72;100.00
15914;BME280;8055;51.930;8.840;2023-02-22T00:49:17;76509.69;;;-145.72;100.00
15914;BME280;8055;51.930;8.840;2023-02-22T00:51:42;76507.59;;;-145.72;100.00
15914;BME280;8055;51.930;8.840;2023-02-22T00:54:08;76505.53;;;-145.72;100.00
15914;BME280;8055;51.930;8.840;2023-02-22T00:56:35;76505.53;;;-145.72;100.00
15914;BME280;8055;51.930;8.840;2023-02-22T00:59:02;76505.53;;;-145.72;100.00
15914;BME280;8055;51.930;8.840;2023-02-22T01:01:27;76495.19;;;-145.72;100.00
15914;BME280;8055;51.930;8.840;2023-02-22T01:03:53;76509.69;;;-145.72;100.00
15914;BME280;8055;51.930;8.840;2023-02-22T01:06:18;76507.59;;;-145.72;100.00
15914;BME280;8055;51.930;8.840;2023-02-22T01:08:45;76503.47;;;-145.72;100.00
15914;BME280;8055;51.930;8.840;2023-02-22T01:11:12;76503.47;;;-145.72;100.00
15914;BME280;8055;51.930;8.840;2023-02-22T01:13:39;76509.69;;;-145.72;100.00
15914;BME280;8055;51.930;8.840;2023-02-22T01:16:05;76501.41;;;-145.72;100.00
15914;BME280;8055;51.930;8.840;2023-02-22T01:18:35;76499.31;;;-145.72;100.00
15914;BME280;8055;51.930;8.840;2023-02-22T01:21:05;76495.19;;;-145.72;100.00
15914;BME280;8055;51.930;8.840;2023-02-22T01:23:30;76497.25;;;-145.72;100.00
15914;BME280;8055;51.930;8.840;2023-02-22T01:25:56;76503.47;;;-145.72;100.00
15914;BME280;8055;51.930;8.840;2023-02-22T01:28:22;76503.47;;;-145.72;100.00
15914;BME280;8055;51.930;8.840;2023-02-22T01:30:48;76503.47;;;-145.72;100.00
15914;BME280;8055;51.930;8.840;2023-02-22T01:33:14;76505.53;;;-145.72;100.00
15914;BME280;8055;51.930;8.840;2023-02-22T01:35:40;76501.41;;;-145.72;100.00
15914;BME280;8055;51.930;8.840;2023-02-22T01:38:08;76507.59;;;-145.72;100.00
15914;BME280;8055;51.930;8.840;2023-02-22T01:40:36;76503.47;;;-145.72;100.00
15914;BME280;8055;51.930;8.840;2023-02-22T01:43:05;76503.47;;;-145.72;100.00
15914;BME280;8055;51.930;8.840;2023-02-22T01:45:48;76501.41;;;-145.72;100.00
15914;BME280;8055;51.930;8.840;2023-02-22T01:48:27;76503.47;;;-145.72;100.00
15914;BME280;8055;51.930;8.840;2023-02-22T01:51:00;76497.25;;;-145.72;100.00
15914;BME280;8055;51.930;8.840;2023-02-22T01:53:33;76501.41;;;-145.72;100.00
15914;BME280;8055;51.930;8.840;2023-02-22T01:56:00;76499.31;;;-145.72;100.00
15914;BME280;8055;51.930;8.840;2023-02-22T01:58:27;76495.19;;;-145.72;100.00
15914;BME280;8055;51.930;8.840;2023-02-22T02:00:54;76499.31;;;-145.72;100.00
15914;BME280;8055;51.930;8.840;2023-02-22T02:03:25;76507.59;;;-145.72;100.00
15914;BME280;8055;51.930;8.840;2023-02-22T02:05:53;76509.69;;;-145.72;100.00
15914;BME280;8055;51.930;8.840;2023-02-22T02:08:28;76507.59;;;-145.72;100.00
15914;BME280;8055;51.930;8.840;2023-02-22T02:10:55;76505.53;;;-145.72;100.00
15914;BME280;8055;51.930;8.840;2023-02-22T02:13:23;76513.81;;;-145.72;100.00
15914;BME280;8055;51.930;8.840;2023-02-22T02:15:48;76509.69;;;-145.72;100.00
15914;BME280;8055;51.930;8.840;2023-02-22T02:18:17;76509.69;;;-145.72;100.00
15914;BME280;8055;51.930;8.840;2023-02-22T02:28:54;76517.97;;;-145.72;100.00
15914;BME280;8055;51.930;8.840;2023-02-22T02:39:08;76513.81;;;-145.72;100.00
15914;BME280;8055;51.930;8.840;2023-02-22T02:41:38;76513.81;;;-145.72;100.00
15914;BME280;8055;51.930;8.840;2023-02-22T02:44:13;76511.75;;;-145.72;100.00
15914;BME280;8055;51.930;8.840;2023-02-22T02:46:49;76517.97;;;-145.72;100.00
15914;BME280;8055;51.930;8.840;2023-02-22T02:49:21;76509.69;;;-145.72;100.00
15914;BME280;8055;51.930;8.840;2023-02-22T02:51:51;76513.81;;;-145.72;100.00
15914;BME280;8055;51.930;8.840;2023-02-22T02:54:19;76520.03;;;-145.72;100.00
15914;BME280;8055;51.930;8.840;2023-02-22T02:56:46;76517.97;;;-145.72;100.00
15914;BME280;8055;51.930;8.840;2023-02-22T02:59:37;76507.59;;;-145.72;100.00
15914;BME280;8055;51.930;8.840;2023-02-22T03:07:49;76505.53;;;-145.72;100.00
15914;BME280;8055;51.930;8.840;2023-02-22T03:13:53;76505.53;;;-145.72;100.00
15914;BME280;8055;51.930;8.840;2023-02-22T03:18:48;76505.53;;;-145.72;100.00
15914;BME280;8055;51.930;8.840;2023-02-22T03:21:20;76511.75;;;-145.72;100.00
15914;BME280;8055;51.930;8.840;2023-02-22T03:26:33;76511.75;;;-145.72;100.00
15914;BME280;8055;51.930;8.840;2023-02-22T03:29:00;76513.81;;;-145.72;100.00
15914;BME280;8055;51.930;8.840;2023-02-22T03:31:33;76524.16;;;-145.72;100.00
15914;BME280;8055;51.930;8.840;2023-02-22T03:34:10;76515.88;;;-145.72;100.00
15914;BME280;8055;51.930;8.840;2023-02-22T03:36:53;76524.16;;;-145.72;100.00
15914;BME280;8055;51.930;8.840;2023-02-22T03:39:22;76524.16;;;-145.72;100.00
15914;BME280;8055;51.930;8.840;2023-02-22T03:41:56;76528.31;;;-145.72;100.00
15914;BME280;8055;51.930;8.840;2023-02-22T03:44:26;76522.09;;;-145.72;100.00
15914;BME280;8055;51.930;8.840;2023-02-22T03:46:55;76532.44;;;-145.72;100.00
15914;BME280;8055;51.930;8.840;2023-02-22T03:49:54;76530.38;;;-145.72;100.00
15914;BME280;8055;51.930;8.840;2023-02-22T03:52:22;76530.38;;;-145.72;100.00
15914;BME280;8055;51.930;8.840;2023-02-22T03:54:50;76528.31;;;-145.72;100.00
15914;BME280;8055;51.930;8.840;2023-02-22T03:57:24;76526.22;;;-145.72;100.00
15914;BME280;8055;51.930;8.840;2023-02-22T03:59:51;76536.59;;;-145.72;100.00
15914;BME280;8055;51.930;8.840;2023-02-22T04:02:16;76532.44;;;-145.72;100.00
15914;BME280;8055;51.930;8.840;2023-02-22T04:04:44;76536.59;;;-145.72;100.00
15914;BME280;8055;51.930;8.840;2023-02-22T04:07:10;76526.22;;;-145.72;100.00
15914;BME280;8055;51.930;8.840;2023-02-22T04:09:35;76526.22;;;-145.72;100.00
15914;BME280;8055;51.930;8.840;2023-02-22T04:12:01;76532.44;;;-145.72;100.00
15914;BME280;8055;51.930;8.840;2023-02-22T04:14:26;76530.38;;;-145.72;100.00
15914;BME280;8055;51.930;8.840;2023-02-22T04:16:52;76530.38;;;-145.72;100.00
15914;BME280;8055;51.930;8.840;2023-02-22T04:19:17;76526.22;;;-145.72;100.00
15914;BME280;8055;51.930;8.840;2023-02-22T04:21:43;76532.44;;;-145.72;100.00
15914;BME280;8055;51.930;8.840;2023-02-22T04:24:08;76540.72;;;-145.72;100.00
15914;BME280;8055;51.930;8.840;2023-02-22T04:26:33;76530.38;;;-145.72;100.00
15914;BME280;8055;51.930;8.840;2023-02-22T04:28:59;76532.44;;;-145.72;100.00
15914;BME280;8055;51.930;8.840;2023-02-22T04:31:24;76530.38;;;-145.72;100.00
15914;BME280;8055;51.930;8.840;2023-02-22T04:33:49;76532.44;;;-145.72;100.00
15914;BME280;8055;51.930;8.840;2023-02-22T04:36:15;76536.59;;;-145.72;100.00
15914;BME280;8055;51.930;8.840;2023-02-22T04:38:41;76532.44;;;-145.72;100.00
15914;BME280;8055;51.930;8.840;2023-02-22T04:41:07;76538.66;;;-145.72;100.00
15914;BME280;8055;51.930;8.840;2023-02-22T04:43:32;76544.84;;;-145.72;100.00
15914;BME280;8055;51.930;8.840;2023-02-22T04:45:57;76540.72;;;-145.72;100.00
15914;BME280;8055;51.930;8.840;2023-02-22T04:48:23;76542.78;;;-145.72;100.00
15914;BME280;8055;51.930;8.840;2023-02-22T04:50:48;76538.66;;;-145.72;100.00
15914;BME280;8055;51.930;8.840;2023-02-22T04:53:15;76538.66;;;-145.72;100.00
15914;BME280;8055;51.930;8.840;2023-02-22T04:55:40;76532.44;;;-145.72;100.00
15914;BME280;8055;51.930;8.840;2023-02-22T04:58:06;76540.72;;;-145.72;100.00
15914;BME280;8055;51.930;8.840;2023-02-22T05:00:31;76530.38;;;-145.72;100.00
15914;BME280;8055;51.930;8.840;2023-02-22T05:02:56;76538.66;;;-145.72;100.00
15914;BME280;8055;51.930;8.840;2023-02-22T05:05:22;76536.59;;;-145.72;100.00
15914;BME280;8055;51.930;8.840;2023-02-22T05:07:48;76532.44;;;-145.72;100.00
15914;BME280;8055;51.930;8.840;2023-02-22T05:10:14;76532.44;;;-145.72;100.00
15914;BME280;8055;51.930;8.840;2023-02-22T05:12:39;76538.66;;;-145.72;100.00
15914;BME280;8055;51.930;8.840;2023-02-22T05:15:06;76528.31;;;-145.72;100.00
15914;BME280;8055;51.930;8.840;2023-02-22T05:17:31;76530.38;;;-145.72;100.00
15914;BME280;8055;51.930;8.840;2023-02-22T05:19:57;76528.31;;;-145.72;100.00
15914;BME280;8055;51.930;8.840;2023-02-22T05:22:22;76524.16;;;-145.72;100.00
15914;BME280;8055;51.930;8.840;2023-02-22T05:24:49;76526.22;;;-145.72;100.00
15914;BME280;8055;51.930;8.840;2023-02-22T05:27:17;76517.97;;;-145.72;100.00
15914;BME280;8055;51.930;8.840;2023-02-22T05:29:42;76515.88;;;-145.72;100.00
15914;BME280;8055;51.930;8.840;2023-02-22T05:32:07;76517.97;;;-145.72;100.00
15914;BME280;8055;51.930;8.840;2023-02-22T05:34:33;76522.09;;;-145.72;100.00
15914;BME280;8055;51.930;8.840;2023-02-22T05:36:58;76517.97;;;-145.72;100.00
15914;BME280;8055;51.930;8.840;2023-02-22T05:39:23;76520.03;;;-145.72;100.00
15914;BME280;8055;51.930;8.840;2023-02-22T05:41:49;76528.31;;;-145.72;100.00
15914;BME280;8055;51.930;8.840;2023-02-22T05:44:14;76526.22;;;-145.72;100.00
15914;BME280;8055;51.930;8.840;2023-02-22T05:46:40;76528.31;;;-145.72;100.00
15914;BME280;8055;51.930;8.840;2023-02-22T05:49:05;76524.16;;;-145.72;100.00
15914;BME280;8055;51.930;8.840;2023-02-22T05:51:31;76522.09;;;-145.72;100.00
15914;BME280;8055;51.930;8.840;2023-02-22T05:53:57;76522.09;;;-145.72;100.00
15914;BME280;8055;51.930;8.840;2023-02-22T05:56:25;76517.97;;;-145.72;100.00
15914;BME280;8055;51.930;8.840;2023-02-22T05:58:51;76509.69;;;-145.72;100.00
15914;BME280;8055;51.930;8.840;2023-02-22T06:01:16;76511.75;;;-145.72;100.00
15914;BME280;8055;51.930;8.840;2023-02-22T06:03:42;76515.88;;;-145.72;100.00
15914;BME280;8055;51.930;8.840;2023-02-22T06:06:10;76517.97;;;-145.72;100.00
15914;BME280;8055;51.930;8.840;2023-02-22T06:08:35;76515.88;;;-145.72;100.00
15914;BME280;8055;51.930;8.840;2023-02-22T06:11:01;76515.88;;;-145.72;100.00
15914;BME280;8055;51.930;8.840;2023-02-22T06:13:26;76517.97;;;-145.72;100.00
15914;BME280;8055;51.930;8.840;2023-02-22T06:15:51;76515.88;;;-145.72;100.00
15914;BME280;8055;51.930;8.840;2023-02-22T06:18:17;76513.81;;;-145.72;100.00
15914;BME280;8055;51.930;8.840;2023-02-22T06:20:42;76520.03;;;-145.72;100.00
15914;BME280;8055;51.930;8.840;2023-02-22T06:23:08;76515.88;;;-145.72;100.00
15914;BME280;8055;51.930;8.840;2023-02-22T06:25:33;76515.88;;;-145.72;100.00
15914;BME280;8055;51.930;8.840;2023-02-22T06:28:00;76520.03;;;-145.72;100.00
15914;BME280;8055;51.930;8.840;2023-02-22T06:30:26;76517.97;;;-145.72;100.00
15914;BME280;8055;51.930;8.840;2023-02-22T06:32:51;76517.97;;;-145.72;100.00
15914;BME280;8055;51.930;8.840;2023-02-22T06:35:17;76517.97;;;-145.72;100.00
15914;BME280;8055;51.930;8.840;2023-02-22T06:37:43;76515.88;;;-145.72;100.00
15914;BME280;8055;51.930;8.840;2023-02-22T06:40:08;76513.81;;;-145.72;100.00
15914;BME280;8055;51.930;8.840;2023-02-22T06:42:36;76515.88;;;-145.72;100.00
15914;BME280;8055;51.930;8.840;2023-02-22T06:45:02;76515.88;;;-145.72;100.00
15914;BME280;8055;51.930;8.840;2023-02-22T06:47:28;76513.81;;;-145.72;100.00
15914;BME280;8055;51.930;8.840;2023-02-22T06:49:55;76517.97;;;-145.72;100.00
15914;BME280;8055;51.930;8.840;2023-02-22T06:52:21;76515.88;;;-145.72;100.00
15914;BME280;8055;51.930;8.840;2023-02-22T06:54:47;76517.97;;;-145.72;100.00
15914;BME280;8055;51.930;8.840;2023-02-22T06:57:13;76511.75;;;-145.72;100.00
15914;BME280;8055;51.930;8.840;2023-02-22T06:59:38;76509.69;;;-145.72;100.00
15914;BME280;8055;51.930;8.840;2023-02-22T07:02:04;76507.59;;;-145.72;100.00
15914;BME280;8055;51.930;8.840;2023-02-22T07:04:30;76499.31;;;-145.72;100.00
15914;BME280;8055;51.930;8.840;2023-02-22T07:06:55;76495.19;;;-145.72;100.00
15914;BME280;8055;51.930;8.840;2023-02-22T07:09:21;76495.19;;;-145.72;100.00
15914;BME280;8055;51.930;8.840;2023-02-22T07:11:46;76491.03;;;-145.72;100.00
15914;BME280;8055;51.930;8.840;2023-02-22T07:14:11;76484.84;;;-145.72;100.00
15914;BME280;8055;51.930;8.840;2023-02-22T07:16:37;76482.78;;;-145.72;100.00
15914;BME280;8055;51.930;8.840;2023-02-22T07:19:02;76472.41;;;-145.72;100.00
15914;BME280;8055;51.930;8.840;2023-02-22T07:21:28;76474.50;;;-145.72;100.00
15914;BME280;8055;51.930;8.840;2023-02-22T07:23:56;76470.34;;;-145.72;100.00
15914;BME280;8055;51.930;8.840;2023-02-22T07:26:23;76466.22;;;-145.72;100.00
15914;BME280;8055;51.930;8.840;2023-02-22T07:28:49;76464.16;;;-145.72;100.00
15914;BME280;8055;51.930;8.840;2023-02-22T07:31:15;76460.00;;;-145.72;100.00
15914;BME280;8055;51.930;8.840;2023-02-22T07:33:41;76455.88;;;-145.72;100.00
15914;BME280;8055;51.930;8.840;2023-02-22T07:36:07;76451.72;;;-145.72;100.00
15914;BME280;8055;51.930;8.840;2023-02-22T07:38:32;76441.38;;;-145.72;100.00
15914;BME280;8055;51.930;8.840;2023-02-22T07:40:58;76437.25;;;-145.72;100.00
15914;BME280;8055;51.930;8.840;2023-02-22T07:43:25;76437.25;;;-145.72;100.00
15914;BME280;8055;51.930;8.840;2023-02-22T07:45:53;76424.81;;;-145.72;100.00
15914;BME280;8055;51.930;8.840;2023-02-22T07:48:21;76412.41;;;-145.72;100.00
15914;BME280;8055;51.930;8.840;2023-02-22T07:50:47;76410.34;;;-145.72;100.00
15914;BME280;8055;51.930;8.840;2023-02-22T07:53:18;76402.06;;;-145.72;100.00
15914;BME280;8055;51.930;8.840;2023-02-22T07:55:44;76393.78;;;-145.72;100.00
15914;BME280;8055;51.930;8.840;2023-02-22T07:58:13;76393.78;;;-145.72;100.00
15914;BME280;8055;51.930;8.840;2023-02-22T08:00:40;76383.44;;;-145.72;100.00
15914;BME280;8055;51.930;8.840;2023-02-22T08:03:11;76373.09;;;-145.72;100.00
15914;BME280;8055;51.930;8.840;2023-02-22T08:05:38;76375.16;;;-145.72;100.00
15914;BME280;8055;51.930;8.840;2023-02-22T08:08:05;76358.59;;;-145.72;100.00
15914;BME280;8055;51.930;8.840;2023-02-22T08:10:32;76348.25;;;-145.72;100.00
15914;BME280;8055;51.930;8.840;2023-02-22T08:12:58;76342.03;;;-145.72;100.00
15914;BME280;8055;51.930;8.840;2023-02-22T08:17:52;76327.56;;;-145.72;100.00
15914;BME280;8055;51.930;8.840;2023-02-22T08:20:18;76319.28;;;-145.72;100.00
15914;BME280;8055;51.930;8.840;2023-02-22T08:22:45;76313.06;;;-145.72;100.00
15914;BME280;8055;51.930;8.840;2023-02-22T08:25:12;76304.78;;;-145.72;100.00
15914;BME280;8055;51.930;8.840;2023-02-22T08:27:37;76298.59;;;-145.72;100.00
15914;BME280;8055;51.930;8.840;2023-02-22T08:30:04;76290.31;;;-145.72;100.00
15914;BME280;8055;51.930;8.840;2023-02-22T08:32:29;76284.09;;;-145.72;100.00
15914;BME280;8055;51.930;8.840;2023-02-22T08:34:54;76275.81;;;-145.72;100.00
15914;BME280;8055;51.930;8.840;2023-02-22T08:37:20;76275.81;;;-145.72;100.00
15914;BME280;8055;51.930;8.840;2023-02-22T08:39:45;76255.13;;;-145.72;100.00
15914;BME280;8055;51.930;8.840;2023-02-22T08:42:10;76250.97;;;-145.72;100.00
15914;BME280;8055;51.930;8.840;2023-02-22T08:44:38;76244.78;;;-145.72;100.00
15914;BME280;8055;51.930;8.840;2023-02-22T08:47:04;76234.44;;;-145.72;100.00
15914;BME280;8055;51.930;8.840;2023-02-22T08:49:30;76224.09;;;-145.72;100.00
15914;BME280;8055;51.930;8.840;2023-02-22T08:51:55;76213.72;;;-145.72;100.00
15914;BME280;8055;51.930;8.840;2023-02-22T08:54:21;76213.72;;;-145.72;100.00
15914;BME280;8055;51.930;8.840;2023-02-22T08:56:47;76201.31;;;-145.72;100.00
15914;BME280;8055;51.930;8.840;2023-02-22T08:59:13;76193.03;;;-145.72;100.00
15914;BME280;8055;51.930;8.840;2023-02-22T09:01:38;76184.75;;;-145.72;100.00
15914;BME280;8055;51.930;8.840;2023-02-22T09:04:04;76180.63;;;-145.72;100.00
15914;BME280;8055;51.930;8.840;2023-02-22T09:06:29;76172.34;;;-145.72;100.00
15914;BME280;8055;51.930;8.840;2023-02-22T09:08:54;76164.06;;;-145.72;100.00
15914;BME280;8055;51.930;8.840;2023-02-22T09:11:20;76164.06;;;-145.72;100.00
15914;BME280;8055;51.930;8.840;2023-02-22T09:13:46;76151.66;;;-145.72;100.00
15914;BME280;8055;51.930;8.840;2023-02-22T09:16:12;76137.16;;;-145.72;100.00
15914;BME280;8055;51.930;8.840;2023-02-22T09:18:37;76135.09;;;-145.72;100.00
15914;BME280;8055;51.930;8.840;2023-02-22T09:21:03;76124.75;;;-145.72;100.00
15914;BME280;8055;51.930;8.840;2023-02-22T09:23:29;76116.47;;;-145.72;100.00
15914;BME280;8055;51.930;8.840;2023-02-22T09:25:54;76095.78;;;-145.72;100.00
15914;BME280;8055;51.930;8.840;2023-02-22T09:28:20;76087.50;;;-145.72;100.00
15914;BME280;8055;51.930;8.840;2023-02-22T09:30:46;76064.72;;;-145.72;100.00
15914;BME280;8055;51.930;8.840;2023-02-22T09:33:17;76056.47;;;-145.72;100.00
15914;BME280;8055;51.930;8.840;2023-02-22T09:35:44;76039.91;;;-145.72;100.00
15914;BME280;8055;51.930;8.840;2023-02-22T09:38:16;76027.47;;;-145.72;100.00
15914;BME280;8055;51.930;8.840;2023-02-22T09:40:46;76013.00;;;-145.72;100.00
15914;BME280;8055;51.930;8.840;2023-02-22T09:48:33;75965.41;;;-145.72;100.00
15914;BME280;8055;51.930;8.840;2023-02-22T09:51:02;75957.13;;;-145.72;100.00
15914;BME280;8055;51.930;8.840;2023-02-22T09:53:38;75940.56;;;-145.72;100.00
15914;BME280;8055;51.930;8.840;2023-02-22T09:56:10;75932.28;;;-145.72;100.00
15914;BME280;8055;51.930;8.840;2023-02-22T09:58:44;75917.81;;;-145.72;100.00
15914;BME280;8055;51.930;8.840;2023-02-22T10:01:19;75917.81;;;-145.72;100.00
15914;BME280;8055;51.930;8.840;2023-02-22T10:06:21;75886.78;;;-145.72;100.00
15914;BME280;8055;51.930;8.840;2023-02-22T10:08:48;75888.84;;;-145.72;100.00
15914;BME280;8055;51.930;8.840;2023-02-22T10:22:55;75855.72;;;-145.72;100.00
15914;BME280;8055;51.930;8.840;2023-02-22T10:25:26;75853.66;;;-145.72;100.00
15914;BME280;8055;51.930;8.840;2023-02-22T10:28:18;75853.66;;;-145.72;100.00
15914;BME280;8055;51.930;8.840;2023-02-22T10:30:49;75859.88;;;-145.72;100.00
15914;BME280;8055;51.930;8.840;2023-02-22T10:33:39;75853.66;;;-145.72;100.00
15914;BME280;8055;51.930;8.840;2023-02-22T10:36:16;75849.53;;;-145.72;100.00
15914;BME280;8055;51.930;8.840;2023-02-22T10:38:51;75841.25;;;-145.72;100.00
15914;BME280;8055;51.930;8.840;2023-02-22T10:41:32;75835.03;;;-145.72;100.00
15914;BME280;8055;51.930;8.840;2023-02-22T10:44:00;75855.72;;;-145.72;100.00
15914;BME280;8055;51.930;8.840;2023-02-22T10:46:27;75851.59;;;-145.72;100.00
15914;BME280;8055;51.930;8.840;2023-02-22T10:49:02;75849.53;;;-145.72;100.00
15914;BME280;8055;51.930;8.840;2023-02-22T10:51:29;75835.03;;;-145.72;100.00
15914;BME280;8055;51.930;8.840;2023-02-22T10:56:48;75826.75;;;-145.72;100.00
15914;BME280;8055;51.930;8.840;2023-02-22T10:59:28;75824.69;;;-145.72;100.00
15914;BME280;8055;51.930;8.840;2023-02-22T11:01:54;75828.84;;;-145.72;100.00
15914;BME280;8055;51.930;8.840;2023-02-22T11:04:20;75820.56;;;-145.72;100.00
15914;BME280;8055;51.930;8.840;2023-02-22T11:07:06;75818.47;;;-145.72;100.00
15914;BME280;8055;51.930;8.840;2023-02-22T11:09:45;75806.06;;;-145.72;100.00
15914;BME280;8055;51.930;8.840;2023-02-22T11:12:17;75799.88;;;-145.72;100.00
15914;BME280;8055;51.930;8.840;2023-02-22T11:14:43;75799.88;;;-145.72;100.00
15914;BME280;8055;51.930;8.840;2023-02-22T11:17:09;75783.31;;;-145.72;100.00
15914;BME280;8055;51.930;8.840;2023-02-22T11:19:45;75783.31;;;-145.72;100.00
15914;BME280;8055;51.930;8.840;2023-02-22T11:22:24;75764.69;;;-145.72;100.00
15914;BME280;8055;51.930;8.840;2023-02-22T11:25:01;75748.13;;;-145.72;100.00
15914;BME280;8055;51.930;8.840;2023-02-22T11:27:35;75744.00;;;-145.72;100.00
15914;BME280;8055;51.930;8.840;2023-02-22T11:32:51;75739.84;;;-145.72;100.00
15914;BME280;8055;51.930;8.840;2023-02-22T11:38:15;75721.22;;;-145.72;100.00
15914;BME280;8055;51.930;8.840;2023-02-22T11:40:41;75710.88;;;-145.72;100.00
15914;BME280;8055;51.930;8.840;2023-02-22T11:43:08;75704.69;;;-145.72;100.00
15914;BME280;8055;51.930;8.840;2023-02-22T11:45:37;75712.94;;;-145.72;100.00
15914;BME280;8055;51.930;8.840;2023-02-22T11:48:05;75704.69;;;-145.72;100.00
15914;BME280;8055;51.930;8.840;2023-02-22T11:50:51;75702.59;;;-145.72;100.00
15914;BME280;8055;51.930;8.840;2023-02-22T11:53:28;75675.72;;;-145.72;100.00
15914;BME280;8055;51.930;8.840;2023-02-22T11:58:44;75667.44;;;-145.72;100.00
15914;BME280;8055;51.930;8.840;2023-02-22T12:01:21;75673.63;;;-145.72;100.00
15914;BME280;8055;51.930;8.840;2023-02-22T12:09:05;75650.88;;;-145.72;100.00
15914;BME280;8055;51.930;8.840;2023-02-22T12:20:03;75638.47;;;-145.72;100.00
15914;BME280;8055;51.930;8.840;2023-02-22T12:22:37;75634.31;;;-145.72;100.00
15914;BME280;8055;51.930;8.840;2023-02-22T12:27:47;75611.56;;;-145.72;100.00
15914;BME280;8055;51.930;8.840;2023-02-22T12:30:19;75597.09;;;-145.72;100.00
15914;BME280;8055;51.930;8.840;2023-02-22T12:32:50;75588.81;;;-145.72;100.00
15914;BME280;8055;51.930;8.840;2023-02-22T12:35:26;75576.38;;;-145.72;100.00
15914;BME280;8055;51.930;8.840;2023-02-22T12:43:27;75516.38;;;-145.72;100.00
15914;BME280;8055;51.930;8.840;2023-02-22T12:46:17;75495.69;;;-145.72;100.00
15914;BME280;8055;51.930;8.840;2023-02-22T12:57:46;75477.06;;;-145.72;100.00
15914;BME280;8055;51.930;8.840;2023-02-22T12:59:56;75483.28;;;-145.72;100.00
15914;BME280;8055;51.930;8.840;2023-02-22T13:04:49;75495.69;;;-145.72;100.00
15914;BME280;8055;51.930;8.840;2023-02-22T13:07:17;75489.50;;;-145.72;100.00
15914;BME280;8055;51.930;8.840;2023-02-22T13:13:03;75487.41;;;-145.72;100.00
15914;BME280;8055;51.930;8.840;2023-02-22T13:21:02;75485.34;;;-145.72;100.00
15914;BME280;8055;51.930;8.840;2023-02-22T13:23:57;75472.94;;;-145.72;100.00
15914;BME280;8055;51.930;8.840;2023-02-22T13:26:38;75481.22;;;-145.72;100.00
15914;BME280;8055;51.930;8.840;2023-02-22T13:29:23;75475.00;;;-145.72;100.00
15914;BME280;8055;51.930;8.840;2023-02-22T13:32:14;75477.06;;;-145.72;100.00
15914;BME280;8055;51.930;8.840;2023-02-22T13:34:57;75483.28;;;-145.72;100.00
15914;BME280;8055;51.930;8.840;2023-02-22T13:41:01;75481.22;;;-145.72;100.00
15914;BME280;8055;51.930;8.840;2023-02-22T13:44:04;75475.00;;;-145.72;100.00
15914;BME280;8055;51.930;8.840;2023-02-22T13:46:58;75489.50;;;-145.72;100.00
15914;BME280;8055;51.930;8.840;2023-02-22T13:49:44;75481.22;;;-145.72;100.00
15914;BME280;8055;51.930;8.840;2023-02-22T13:52:14;75483.28;;;-145.72;100.00
15914;BME280;8055;51.930;8.840;2023-02-22T13:54:50;75477.06;;;-145.72;100.00
15914;BME280;8055;51.930;8.840;2023-02-22T13:57:36;75477.06;;;-145.72;100.00
15914;BME280;8055;51.930;8.840;2023-02-22T14:03:03;75481.22;;;-145.72;100.00
15914;BME280;8055;51.930;8.840;2023-02-22T14:10:49;75466.72;;;-145.72;100.00
15914;BME280;8055;51.930;8.840;2023-02-22T14:13:19;75464.66;;;-145.72;100.00
15914;BME280;8055;51.930;8.840;2023-02-22T14:16:15;75452.25;;;-145.72;100.00
15914;BME280;8055;51.930;8.840;2023-02-22T14:18:43;75456.38;;;-145.72;100.00
15914;BME280;8055;51.930;8.840;2023-02-22T14:23:46;75439.81;;;-145.72;100.00
15914;BME280;8055;51.930;8.840;2023-02-22T14:28:55;75435.69;;;-145.72;100.00
15914;BME280;8055;51.930;8.840;2023-02-22T14:31:29;75439.81;;;-145.72;100.00
15914;BME280;8055;51.930;8.840;2023-02-22T14:34:03;75441.91;;;-145.72;100.00
15914;BME280;8055;51.930;8.840;2023-02-22T14:36:33;75437.75;;;-145.72;100.00
15914;BME280;8055;51.930;8.840;2023-02-22T14:39:49;75429.47;;;-145.72;100.00
15914;BME280;8055;51.930;8.840;2023-02-22T14:42:24;75423.28;;;-145.72;100.00
15914;BME280;8055;51.930;8.840;2023-02-22T14:47:30;75431.56;;;-145.72;100.00
15914;BME280;8055;51.930;8.840;2023-02-22T14:50:07;75433.63;;;-145.72;100.00
15914;BME280;8055;51.930;8.840;2023-02-22T14:52:38;75446.03;;;-145.72;100.00
15914;BME280;8055;51.930;8.840;2023-02-22T14:55:23;75443.97;;;-145.72;100.00